sensor_id;sensor_type;location;lat;lon;timestamp;temperature;humidity
37910;DHT22;23741;49.446;8.754;2022-10-31T00:03:23;18.80;64.70
37910;DHT22;23741;49.446;8.754;2022-10-31T00:06:02;18.80;64.90
37910;DHT22;23741;49.446;8.754;2022-10-31T00:21:38;18.70;65.20
37910;DHT22;23741;49.446;8.754;2022-10-31T00:27:11;18.70;65.20
37910;DHT22;23741;49.446;8.754;2022-10-31T00:30:07;18.70;65.10
37910;DHT22;23741;49.446;8.754;2022-10-31T00:33:39;18.70;65.10
37910;DHT22;23741;49.446;8.754;2022-10-31T00:49:26;18.60;65.10
37910;DHT22;23741;49.446;8.754;2022-10-31T01:02:44;18.50;65.10
37910;DHT22;23741;49.446;8.754;2022-10-31T01:05:35;18.50;65.10
37910;DHT22;23741;49.446;8.754;2022-10-31T01:08:37;18.50;65.20
37910;DHT22;23741;49.446;8.754;2022-10-31T01:11:18;18.50;66.20
37910;DHT22;23741;49.446;8.754;2022-10-31T01:17:31;18.40;66.20
37910;DHT22;23741;49.446;8.754;2022-10-31T01:20:21;18.40;65.30
37910;DHT22;23741;49.446;8.754;2022-10-31T01:23:50;18.40;65.70
37910;DHT22;23741;49.446;8.754;2022-10-31T01:29:19;18.40;65.30
37910;DHT22;23741;49.446;8.754;2022-10-31T01:35:01;18.40;65.40
37910;DHT22;23741;49.446;8.754;2022-10-31T01:41:31;18.40;65.30
37910;DHT22;23741;49.446;8.754;2022-10-31T01:49:57;18.30;65.10
37910;DHT22;23741;49.446;8.754;2022-10-31T01:52:46;18.40;65.30
37910;DHT22;23741;49.446;8.754;2022-10-31T01:56:15;18.30;65.40
37910;DHT22;23741;49.446;8.754;2022-10-31T01:58:51;18.30;65.40
37910;DHT22;23741;49.446;8.754;2022-10-31T02:01:21;18.30;65.50
37910;DHT22;23741;49.446;8.754;2022-10-31T02:04:12;18.30;65.60
37910;DHT22;23741;49.446;8.754;2022-10-31T02:07:12;18.30;65.50
37910;DHT22;23741;49.446;8.754;2022-10-31T02:09:54;18.30;65.40
37910;DHT22;23741;49.446;8.754;2022-10-31T02:12:51;18.30;65.40
37910;DHT22;23741;49.446;8.754;2022-10-31T02:15:44;18.30;65.70
37910;DHT22;23741;49.446;8.754;2022-10-31T02:18:41;18.20;65.60
37910;DHT22;23741;49.446;8.754;2022-10-31T02:41:01;18.20;65.60
37910;DHT22;23741;49.446;8.754;2022-10-31T02:58:10;18.10;65.50
37910;DHT22;23741;49.446;8.754;2022-10-31T03:20:29;18.10;65.40
37910;DHT22;23741;49.446;8.754;2022-10-31T03:23:41;18.10;65.40
37910;DHT22;23741;49.446;8.754;2022-10-31T03:30:02;18.10;65.40
37910;DHT22;23741;49.446;8.754;2022-10-31T03:36:40;18.10;65.60
37910;DHT22;23741;49.446;8.754;2022-10-31T03:39:23;18.00;65.40
37910;DHT22;23741;49.446;8.754;2022-10-31T03:49:01;18.00;65.40
37910;DHT22;23741;49.446;8.754;2022-10-31T03:59:03;18.00;65.50
37910;DHT22;23741;49.446;8.754;2022-10-31T04:01:47;17.90;65.50
37910;DHT22;23741;49.446;8.754;2022-10-31T04:04:40;18.00;65.50
37910;DHT22;23741;49.446;8.754;2022-10-31T04:07:00;18.00;65.70
37910;DHT22;23741;49.446;8.754;2022-10-31T04:13:15;18.00;65.80
37910;DHT22;23741;49.446;8.754;2022-10-31T04:16:05;17.90;65.60
37910;DHT22;23741;49.446;8.754;2022-10-31T04:19:18;18.00;65.60
37910;DHT22;23741;49.446;8.754;2022-10-31T04:21:52;17.90;65.50
37910;DHT22;23741;49.446;8.754;2022-10-31T04:31:46;17.80;65.50
37910;DHT22;23741;49.446;8.754;2022-10-31T04:34:52;17.90;65.80
37910;DHT22;23741;49.446;8.754;2022-10-31T04:37:43;17.90;65.80
37910;DHT22;23741;49.446;8.754;2022-10-31T04:40:50;17.80;65.80
37910;DHT22;23741;49.446;8.754;2022-10-31T04:53:20;17.80;65.80
37910;DHT22;23741;49.446;8.754;2022-10-31T04:56:09;17.80;65.90
37910;DHT22;23741;49.446;8.754;2022-10-31T05:01:59;17.80;66.70
37910;DHT22;23741;49.446;8.754;2022-10-31T05:04:43;17.70;65.90
37910;DHT22;23741;49.446;8.754;2022-10-31T05:07:22;17.80;65.90
37910;DHT22;23741;49.446;8.754;2022-10-31T05:10:02;17.70;65.80
37910;DHT22;23741;49.446;8.754;2022-10-31T05:15:19;17.70;65.70
37910;DHT22;23741;49.446;8.754;2022-10-31T05:18:20;17.70;65.60
37910;DHT22;23741;49.446;8.754;2022-10-31T05:21:42;17.70;65.70
37910;DHT22;23741;49.446;8.754;2022-10-31T05:24:42;17.70;65.60
37910;DHT22;23741;49.446;8.754;2022-10-31T05:30:21;17.60;65.70
37910;DHT22;23741;49.446;8.754;2022-10-31T05:37:06;17.60;65.70
37910;DHT22;23741;49.446;8.754;2022-10-31T05:42:58;17.60;65.60
37910;DHT22;23741;49.446;8.754;2022-10-31T05:49:28;17.50;65.60
37910;DHT22;23741;49.446;8.754;2022-10-31T05:52:30;17.50;65.80
37910;DHT22;23741;49.446;8.754;2022-10-31T05:55:33;17.50;65.80
37910;DHT22;23741;49.446;8.754;2022-10-31T06:01:41;17.40;65.80
37910;DHT22;23741;49.446;8.754;2022-10-31T06:04:35;17.40;65.80
37910;DHT22;23741;49.446;8.754;2022-10-31T06:07:40;17.40;65.80
37910;DHT22;23741;49.446;8.754;2022-10-31T06:13:47;17.40;66.00
37910;DHT22;23741;49.446;8.754;2022-10-31T06:19:42;17.40;66.00
37910;DHT22;23741;49.446;8.754;2022-10-31T06:25:50;17.40;66.10
37910;DHT22;23741;49.446;8.754;2022-10-31T06:34:38;17.30;65.80
37910;DHT22;23741;49.446;8.754;2022-10-31T06:37:56;17.30;65.90
37910;DHT22;23741;49.446;8.754;2022-10-31T06:41:01;17.30;66.00
37910;DHT22;23741;49.446;8.754;2022-10-31T06:44:03;17.30;66.20
37910;DHT22;23741;49.446;8.754;2022-10-31T06:46:57;17.30;66.50
37910;DHT22;23741;49.446;8.754;2022-10-31T06:49:38;17.30;66.20
37910;DHT22;23741;49.446;8.754;2022-10-31T06:58:30;17.30;66.20
37910;DHT22;23741;49.446;8.754;2022-10-31T07:01:23;17.30;66.30
37910;DHT22;23741;49.446;8.754;2022-10-31T07:03:45;17.30;66.30
37910;DHT22;23741;49.446;8.754;2022-10-31T07:05:54;17.40;66.40
37910;DHT22;23741;49.446;8.754;2022-10-31T07:13:55;17.50;66.40
37910;DHT22;23741;49.446;8.754;2022-10-31T07:18:45;17.40;66.50
37910;DHT22;23741;49.446;8.754;2022-10-31T07:21:20;17.50;66.70
37910;DHT22;23741;49.446;8.754;2022-10-31T07:23:56;17.50;66.70
37910;DHT22;23741;49.446;8.754;2022-10-31T07:26:47;17.50;66.70
37910;DHT22;23741;49.446;8.754;2022-10-31T07:29:16;17.50;66.60
37910;DHT22;23741;49.446;8.754;2022-10-31T07:32:08;17.50;66.70
37910;DHT22;23741;49.446;8.754;2022-10-31T07:34:56;17.60;66.80
37910;DHT22;23741;49.446;8.754;2022-10-31T07:40:26;17.60;66.70
37910;DHT22;23741;49.446;8.754;2022-10-31T07:42:43;17.60;66.80
37910;DHT22;23741;49.446;8.754;2022-10-31T07:45:30;17.70;66.80
37910;DHT22;23741;49.446;8.754;2022-10-31T07:48:22;17.70;66.70
37910;DHT22;23741;49.446;8.754;2022-10-31T07:51:00;17.70;66.80
37910;DHT22;23741;49.446;8.754;2022-10-31T07:53:46;17.80;66.80
37910;DHT22;23741;49.446;8.754;2022-10-31T07:56:12;17.80;67.00
37910;DHT22;23741;49.446;8.754;2022-10-31T07:58:57;17.80;66.80
37910;DHT22;23741;49.446;8.754;2022-10-31T08:04:37;17.90;66.80
37910;DHT22;23741;49.446;8.754;2022-10-31T08:09:55;17.90;66.90
37910;DHT22;23741;49.446;8.754;2022-10-31T08:12:54;18.00;66.80
37910;DHT22;23741;49.446;8.754;2022-10-31T08:15:35;18.00;66.80
37910;DHT22;23741;49.446;8.754;2022-10-31T08:18:19;18.10;66.90
37910;DHT22;23741;49.446;8.754;2022-10-31T08:20:42;18.10;66.90
37910;DHT22;23741;49.446;8.754;2022-10-31T08:23:19;18.10;66.90
37910;DHT22;23741;49.446;8.754;2022-10-31T08:26:01;18.20;66.90
37910;DHT22;23741;49.446;8.754;2022-10-31T08:28:58;18.20;67.70
37910;DHT22;23741;49.446;8.754;2022-10-31T08:31:34;18.20;66.80
37910;DHT22;23741;49.446;8.754;2022-10-31T08:34:23;18.30;66.80
37910;DHT22;23741;49.446;8.754;2022-10-31T08:37:44;18.30;66.80
37910;DHT22;23741;49.446;8.754;2022-10-31T08:40:25;18.40;66.90
37910;DHT22;23741;49.446;8.754;2022-10-31T08:45:54;18.50;66.90
37910;DHT22;23741;49.446;8.754;2022-10-31T08:48:09;18.50;66.90
37910;DHT22;23741;49.446;8.754;2022-10-31T08:51:17;18.60;66.90
37910;DHT22;23741;49.446;8.754;2022-10-31T08:54:12;18.70;66.80
37910;DHT22;23741;49.446;8.754;2022-10-31T08:57:09;18.70;66.80
37910;DHT22;23741;49.446;8.754;2022-10-31T08:59:50;18.80;67.00
37910;DHT22;23741;49.446;8.754;2022-10-31T09:02:30;18.80;67.00
37910;DHT22;23741;49.446;8.754;2022-10-31T09:04:55;18.80;66.90
37910;DHT22;23741;49.446;8.754;2022-10-31T09:10:43;18.90;66.70
37910;DHT22;23741;49.446;8.754;2022-10-31T09:16:15;19.10;66.70
37910;DHT22;23741;49.446;8.754;2022-10-31T09:18:54;19.10;67.50
37910;DHT22;23741;49.446;8.754;2022-10-31T09:21:11;19.20;66.70
37910;DHT22;23741;49.446;8.754;2022-10-31T09:23:20;19.20;66.60
37910;DHT22;23741;49.446;8.754;2022-10-31T09:25:43;19.30;66.60
37910;DHT22;23741;49.446;8.754;2022-10-31T09:28:40;19.30;66.60
37910;DHT22;23741;49.446;8.754;2022-10-31T09:31:12;19.40;66.40
37910;DHT22;23741;49.446;8.754;2022-10-31T09:33:39;19.40;66.30
37910;DHT22;23741;49.446;8.754;2022-10-31T09:36:19;19.50;66.30
37910;DHT22;23741;49.446;8.754;2022-10-31T09:44:44;19.70;66.20
37910;DHT22;23741;49.446;8.754;2022-10-31T09:50:18;19.80;66.50
37910;DHT22;23741;49.446;8.754;2022-10-31T09:58:59;20.00;66.40
37910;DHT22;23741;49.446;8.754;2022-10-31T10:09:09;20.10;65.80
37910;DHT22;23741;49.446;8.754;2022-10-31T10:26:53;20.40;65.70
37910;DHT22;23741;49.446;8.754;2022-10-31T10:32:24;20.40;65.70
37910;DHT22;23741;49.446;8.754;2022-10-31T10:41:29;20.50;65.10
37910;DHT22;23741;49.446;8.754;2022-10-31T10:44:00;20.60;65.10
37910;DHT22;23741;49.446;8.754;2022-10-31T10:46:55;20.60;65.00
37910;DHT22;23741;49.446;8.754;2022-10-31T10:49:40;20.60;65.00
37910;DHT22;23741;49.446;8.754;2022-10-31T11:00:20;20.80;65.00
37910;DHT22;23741;49.446;8.754;2022-10-31T11:02:55;20.80;65.10
37910;DHT22;23741;49.446;8.754;2022-10-31T11:08:49;20.90;65.10
37910;DHT22;23741;49.446;8.754;2022-10-31T11:11:56;20.90;65.00
37910;DHT22;23741;49.446;8.754;2022-10-31T11:14:44;21.00;65.00
37910;DHT22;23741;49.446;8.754;2022-10-31T11:17:53;21.00;64.90
37910;DHT22;23741;49.446;8.754;2022-10-31T11:20:24;21.00;64.90
37910;DHT22;23741;49.446;8.754;2022-10-31T11:28:07;21.10;64.80
37910;DHT22;23741;49.446;8.754;2022-10-31T11:30:47;21.10;64.80
37910;DHT22;23741;49.446;8.754;2022-10-31T11:33:01;21.20;64.90
37910;DHT22;23741;49.446;8.754;2022-10-31T11:35:29;21.20;64.70
37910;DHT22;23741;49.446;8.754;2022-10-31T11:38:23;21.20;64.80
37910;DHT22;23741;49.446;8.754;2022-10-31T11:40:58;21.20;64.80
37910;DHT22;23741;49.446;8.754;2022-10-31T11:46:18;21.30;64.40
37910;DHT22;23741;49.446;8.754;2022-10-31T11:49:01;21.30;64.30
37910;DHT22;23741;49.446;8.754;2022-10-31T11:51:52;21.40;64.30
37910;DHT22;23741;49.446;8.754;2022-10-31T11:57:45;21.40;64.10
37910;DHT22;23741;49.446;8.754;2022-10-31T12:00:21;21.40;64.00
37910;DHT22;23741;49.446;8.754;2022-10-31T12:05:42;21.40;64.10
37910;DHT22;23741;49.446;8.754;2022-10-31T12:08:15;21.50;64.30
37910;DHT22;23741;49.446;8.754;2022-10-31T12:19:12;21.50;64.20
37910;DHT22;23741;49.446;8.754;2022-10-31T12:21:59;21.60;64.30
37910;DHT22;23741;49.446;8.754;2022-10-31T12:25:04;21.60;64.40
37910;DHT22;23741;49.446;8.754;2022-10-31T12:44:56;21.80;64.20
37910;DHT22;23741;49.446;8.754;2022-10-31T12:48:03;21.80;64.10
37910;DHT22;23741;49.446;8.754;2022-10-31T12:52:54;21.70;64.00
37910;DHT22;23741;49.446;8.754;2022-10-31T12:57:45;21.70;64.00
37910;DHT22;23741;49.446;8.754;2022-10-31T13:00:15;21.70;63.90
37910;DHT22;23741;49.446;8.754;2022-10-31T13:07:39;21.70;64.10
37910;DHT22;23741;49.446;8.754;2022-10-31T13:09:58;21.80;64.20
37910;DHT22;23741;49.446;8.754;2022-10-31T13:12:14;21.80;64.10
37910;DHT22;23741;49.446;8.754;2022-10-31T13:16:54;21.80;64.30
37910;DHT22;23741;49.446;8.754;2022-10-31T13:24:00;21.80;64.50
37910;DHT22;23741;49.446;8.754;2022-10-31T13:26:21;21.80;64.50
37910;DHT22;23741;49.446;8.754;2022-10-31T13:30:56;21.90;64.60
37910;DHT22;23741;49.446;8.754;2022-10-31T13:33:26;21.80;64.50
37910;DHT22;23741;49.446;8.754;2022-10-31T13:35:36;21.80;64.50
37910;DHT22;23741;49.446;8.754;2022-10-31T13:37:54;21.90;64.60
37910;DHT22;23741;49.446;8.754;2022-10-31T13:40:25;21.90;64.60
37910;DHT22;23741;49.446;8.754;2022-10-31T13:45:15;21.90;64.60
37910;DHT22;23741;49.446;8.754;2022-10-31T13:47:27;21.90;64.60
37910;DHT22;23741;49.446;8.754;2022-10-31T13:51:32;21.90;64.50
37910;DHT22;23741;49.446;8.754;2022-10-31T13:53:45;21.90;64.40
37910;DHT22;23741;49.446;8.754;2022-10-31T13:58:18;21.90;64.40
37910;DHT22;23741;49.446;8.754;2022-10-31T14:02:29;21.90;64.40
37910;DHT22;23741;49.446;8.754;2022-10-31T14:06:41;22.00;64.60
37910;DHT22;23741;49.446;8.754;2022-10-31T14:08:48;22.00;64.50
37910;DHT22;23741;49.446;8.754;2022-10-31T14:10:51;22.10;64.60
37910;DHT22;23741;49.446;8.754;2022-10-31T14:15:16;22.20;64.40
37910;DHT22;23741;49.446;8.754;2022-10-31T14:17:22;22.30;64.40
37910;DHT22;23741;49.446;8.754;2022-10-31T14:19:25;22.30;64.50
37910;DHT22;23741;49.446;8.754;2022-10-31T14:21:28;22.40;64.50
37910;DHT22;23741;49.446;8.754;2022-10-31T14:25:34;22.60;64.30
37910;DHT22;23741;49.446;8.754;2022-10-31T14:27:43;22.60;64.10
37910;DHT22;23741;49.446;8.754;2022-10-31T14:29:46;22.70;64.00
37910;DHT22;23741;49.446;8.754;2022-10-31T14:31:52;22.80;63.70
37910;DHT22;23741;49.446;8.754;2022-10-31T14:33:56;22.90;63.50
37910;DHT22;23741;49.446;8.754;2022-10-31T14:36:08;22.90;63.40
37910;DHT22;23741;49.446;8.754;2022-10-31T14:45:18;23.10;63.20
37910;DHT22;23741;49.446;8.754;2022-10-31T14:51:42;23.10;62.40
37910;DHT22;23741;49.446;8.754;2022-10-31T14:55:51;23.10;61.90
37910;DHT22;23741;49.446;8.754;2022-10-31T14:57:55;23.10;61.50
37910;DHT22;23741;49.446;8.754;2022-10-31T15:00:00;23.00;61.40
37910;DHT22;23741;49.446;8.754;2022-10-31T15:02:09;23.00;61.20
37910;DHT22;23741;49.446;8.754;2022-10-31T15:04:27;22.90;61.30
37910;DHT22;23741;49.446;8.754;2022-10-31T15:06:30;22.90;61.40
37910;DHT22;23741;49.446;8.754;2022-10-31T15:10:36;22.80;61.40
37910;DHT22;23741;49.446;8.754;2022-10-31T15:12:38;22.70;61.40
37910;DHT22;23741;49.446;8.754;2022-10-31T15:14:40;22.60;61.40
37910;DHT22;23741;49.446;8.754;2022-10-31T15:16:42;22.60;61.50
37910;DHT22;23741;49.446;8.754;2022-10-31T15:18:49;22.50;61.60
37910;DHT22;23741;49.446;8.754;2022-10-31T15:20:51;22.50;61.80
37910;DHT22;23741;49.446;8.754;2022-10-31T15:22:57;22.40;61.80
37910;DHT22;23741;49.446;8.754;2022-10-31T15:24:59;22.30;61.80
37910;DHT22;23741;49.446;8.754;2022-10-31T15:27:01;22.30;61.70
37910;DHT22;23741;49.446;8.754;2022-10-31T15:29:10;22.20;61.60
37910;DHT22;23741;49.446;8.754;2022-10-31T15:31:16;22.20;61.60
37910;DHT22;23741;49.446;8.754;2022-10-31T15:33:20;22.10;61.80
37910;DHT22;23741;49.446;8.754;2022-10-31T15:35:23;22.10;62.10
37910;DHT22;23741;49.446;8.754;2022-10-31T15:37:27;22.00;62.10
37910;DHT22;23741;49.446;8.754;2022-10-31T15:39:29;22.00;62.20
37910;DHT22;23741;49.446;8.754;2022-10-31T15:41:47;21.90;62.20
37910;DHT22;23741;49.446;8.754;2022-10-31T15:43:56;21.90;62.40
37910;DHT22;23741;49.446;8.754;2022-10-31T15:46:01;21.80;62.50
37910;DHT22;23741;49.446;8.754;2022-10-31T15:48:04;21.80;62.50
37910;DHT22;23741;49.446;8.754;2022-10-31T15:50:19;21.70;62.60
37910;DHT22;23741;49.446;8.754;2022-10-31T15:54:23;21.60;62.50
37910;DHT22;23741;49.446;8.754;2022-10-31T15:56:28;21.60;62.70
37910;DHT22;23741;49.446;8.754;2022-10-31T15:58:30;21.60;62.70
37910;DHT22;23741;49.446;8.754;2022-10-31T16:00:34;21.50;62.80
37910;DHT22;23741;49.446;8.754;2022-10-31T16:02:36;21.50;62.90
37910;DHT22;23741;49.446;8.754;2022-10-31T16:04:47;21.50;63.00
37910;DHT22;23741;49.446;8.754;2022-10-31T16:06:59;21.40;63.10
37910;DHT22;23741;49.446;8.754;2022-10-31T16:09:03;21.30;63.00
37910;DHT22;23741;49.446;8.754;2022-10-31T16:13:14;21.30;63.20
37910;DHT22;23741;49.446;8.754;2022-10-31T16:15:16;21.30;64.10
37910;DHT22;23741;49.446;8.754;2022-10-31T16:17:19;21.20;63.30
37910;DHT22;23741;49.446;8.754;2022-10-31T16:19:27;21.20;63.40
37910;DHT22;23741;49.446;8.754;2022-10-31T16:21:30;21.20;63.40
37910;DHT22;23741;49.446;8.754;2022-10-31T16:23:33;21.10;63.40
37910;DHT22;23741;49.446;8.754;2022-10-31T16:25:35;21.10;63.50
37910;DHT22;23741;49.446;8.754;2022-10-31T16:27:38;21.10;63.60
37910;DHT22;23741;49.446;8.754;2022-10-31T16:29:44;21.10;63.60
37910;DHT22;23741;49.446;8.754;2022-10-31T16:31:46;21.00;63.60
37910;DHT22;23741;49.446;8.754;2022-10-31T16:33:47;21.00;63.60
37910;DHT22;23741;49.446;8.754;2022-10-31T16:35:50;21.00;63.70
37910;DHT22;23741;49.446;8.754;2022-10-31T16:38:05;20.90;63.60
37910;DHT22;23741;49.446;8.754;2022-10-31T16:40:08;20.90;63.70
37910;DHT22;23741;49.446;8.754;2022-10-31T16:42:11;20.90;63.80
37910;DHT22;23741;49.446;8.754;2022-10-31T16:44:17;20.90;64.70
37910;DHT22;23741;49.446;8.754;2022-10-31T16:46:22;20.80;63.80
37910;DHT22;23741;49.446;8.754;2022-10-31T16:48:24;20.80;64.00
37910;DHT22;23741;49.446;8.754;2022-10-31T16:50:26;20.80;63.80
37910;DHT22;23741;49.446;8.754;2022-10-31T16:52:28;20.80;64.00
37910;DHT22;23741;49.446;8.754;2022-10-31T16:54:43;20.70;64.00
37910;DHT22;23741;49.446;8.754;2022-10-31T16:56:45;20.70;64.00
37910;DHT22;23741;49.446;8.754;2022-10-31T16:58:47;20.70;64.10
37910;DHT22;23741;49.446;8.754;2022-10-31T17:00:48;20.70;64.20
37910;DHT22;23741;49.446;8.754;2022-10-31T17:02:51;20.70;64.20
37910;DHT22;23741;49.446;8.754;2022-10-31T17:04:53;20.60;64.10
37910;DHT22;23741;49.446;8.754;2022-10-31T17:06:57;20.60;64.10
37910;DHT22;23741;49.446;8.754;2022-10-31T17:08:59;20.60;64.20
37910;DHT22;23741;49.446;8.754;2022-10-31T17:11:01;20.60;64.40
37910;DHT22;23741;49.446;8.754;2022-10-31T17:13:03;20.60;64.40
37910;DHT22;23741;49.446;8.754;2022-10-31T17:15:08;20.50;64.40
37910;DHT22;23741;49.446;8.754;2022-10-31T17:17:12;20.50;64.50
37910;DHT22;23741;49.446;8.754;2022-10-31T17:19:14;20.50;64.50
37910;DHT22;23741;49.446;8.754;2022-10-31T17:21:19;20.50;64.50
37910;DHT22;23741;49.446;8.754;2022-10-31T17:23:23;20.50;64.50
37910;DHT22;23741;49.446;8.754;2022-10-31T17:25:26;20.40;64.40
37910;DHT22;23741;49.446;8.754;2022-10-31T17:27:27;20.40;64.50
37910;DHT22;23741;49.446;8.754;2022-10-31T17:29:29;20.40;64.50
37910;DHT22;23741;49.446;8.754;2022-10-31T17:31:32;20.40;64.50
37910;DHT22;23741;49.446;8.754;2022-10-31T17:33:34;20.40;64.60
37910;DHT22;23741;49.446;8.754;2022-10-31T17:35:36;20.40;64.60
37910;DHT22;23741;49.446;8.754;2022-10-31T17:37:38;20.30;64.50
37910;DHT22;23741;49.446;8.754;2022-10-31T17:39:42;20.30;64.50
37910;DHT22;23741;49.446;8.754;2022-10-31T17:41:44;20.30;64.70
37910;DHT22;23741;49.446;8.754;2022-10-31T17:43:46;20.30;64.60
37910;DHT22;23741;49.446;8.754;2022-10-31T17:45:48;20.30;64.60
37910;DHT22;23741;49.446;8.754;2022-10-31T17:47:50;20.20;64.70
37910;DHT22;23741;49.446;8.754;2022-10-31T17:49:52;20.20;64.80
37910;DHT22;23741;49.446;8.754;2022-10-31T17:51:54;20.20;65.50
37910;DHT22;23741;49.446;8.754;2022-10-31T17:53:56;20.20;64.70
37910;DHT22;23741;49.446;8.754;2022-10-31T17:56:04;20.20;64.80
37910;DHT22;23741;49.446;8.754;2022-10-31T17:58:06;20.20;64.80
37910;DHT22;23741;49.446;8.754;2022-10-31T18:00:10;20.20;65.00
37910;DHT22;23741;49.446;8.754;2022-10-31T18:02:12;20.10;64.90
37910;DHT22;23741;49.446;8.754;2022-10-31T18:04:14;20.10;64.90
37910;DHT22;23741;49.446;8.754;2022-10-31T18:06:16;20.10;64.90
37910;DHT22;23741;49.446;8.754;2022-10-31T18:08:18;20.10;64.90
37910;DHT22;23741;49.446;8.754;2022-10-31T18:10:20;20.10;64.90
37910;DHT22;23741;49.446;8.754;2022-10-31T18:12:21;20.00;65.10
37910;DHT22;23741;49.446;8.754;2022-10-31T18:14:23;20.00;65.10
37910;DHT22;23741;49.446;8.754;2022-10-31T18:16:25;20.00;65.10
37910;DHT22;23741;49.446;8.754;2022-10-31T18:18:27;20.00;65.00
37910;DHT22;23741;49.446;8.754;2022-10-31T18:20:29;20.00;65.10
37910;DHT22;23741;49.446;8.754;2022-10-31T18:22:30;20.00;65.20
37910;DHT22;23741;49.446;8.754;2022-10-31T18:24:32;20.00;65.10
37910;DHT22;23741;49.446;8.754;2022-10-31T18:26:34;19.90;65.10
37910;DHT22;23741;49.446;8.754;2022-10-31T18:28:36;19.90;65.10
37910;DHT22;23741;49.446;8.754;2022-10-31T18:30:39;19.90;65.10
37910;DHT22;23741;49.446;8.754;2022-10-31T18:32:41;19.90;65.10
37910;DHT22;23741;49.446;8.754;2022-10-31T18:34:43;19.90;65.10
37910;DHT22;23741;49.446;8.754;2022-10-31T18:36:45;19.90;65.30
37910;DHT22;23741;49.446;8.754;2022-10-31T18:38:46;19.80;65.30
37910;DHT22;23741;49.446;8.754;2022-10-31T18:40:49;19.80;65.40
37910;DHT22;23741;49.446;8.754;2022-10-31T18:42:51;19.80;65.40
37910;DHT22;23741;49.446;8.754;2022-10-31T18:44:53;19.80;65.50
37910;DHT22;23741;49.446;8.754;2022-10-31T18:46:55;19.80;65.40
37910;DHT22;23741;49.446;8.754;2022-10-31T18:48:56;19.80;65.40
37910;DHT22;23741;49.446;8.754;2022-10-31T18:51:05;19.80;65.70
37910;DHT22;23741;49.446;8.754;2022-10-31T18:53:07;19.80;65.90
37910;DHT22;23741;49.446;8.754;2022-10-31T18:55:09;19.70;65.90
37910;DHT22;23741;49.446;8.754;2022-10-31T18:57:11;19.70;65.90
37910;DHT22;23741;49.446;8.754;2022-10-31T18:59:13;19.70;66.10
37910;DHT22;23741;49.446;8.754;2022-10-31T19:01:16;19.70;65.80
37910;DHT22;23741;49.446;8.754;2022-10-31T19:03:18;19.70;65.80
37910;DHT22;23741;49.446;8.754;2022-10-31T19:05:29;19.70;66.10
37910;DHT22;23741;49.446;8.754;2022-10-31T19:07:34;19.60;66.20
37910;DHT22;23741;49.446;8.754;2022-10-31T19:09:36;19.70;66.10
37910;DHT22;23741;49.446;8.754;2022-10-31T19:11:38;19.60;66.00
37910;DHT22;23741;49.446;8.754;2022-10-31T19:13:42;19.60;66.00
37910;DHT22;23741;49.446;8.754;2022-10-31T19:15:44;19.60;66.30
37910;DHT22;23741;49.446;8.754;2022-10-31T19:17:46;19.60;66.30
37910;DHT22;23741;49.446;8.754;2022-10-31T19:19:48;19.50;66.30
37910;DHT22;23741;49.446;8.754;2022-10-31T19:21:50;19.60;66.30
37910;DHT22;23741;49.446;8.754;2022-10-31T19:23:52;19.50;66.30
37910;DHT22;23741;49.446;8.754;2022-10-31T19:25:56;19.60;66.40
37910;DHT22;23741;49.446;8.754;2022-10-31T19:27:58;19.50;66.20
37910;DHT22;23741;49.446;8.754;2022-10-31T19:30:01;19.50;66.20
37910;DHT22;23741;49.446;8.754;2022-10-31T19:32:03;19.50;66.50
37910;DHT22;23741;49.446;8.754;2022-10-31T19:34:05;19.50;66.40
37910;DHT22;23741;49.446;8.754;2022-10-31T19:36:10;19.50;66.40
37910;DHT22;23741;49.446;8.754;2022-10-31T19:38:14;19.50;66.50
37910;DHT22;23741;49.446;8.754;2022-10-31T19:40:15;19.50;66.70
37910;DHT22;23741;49.446;8.754;2022-10-31T19:42:17;19.50;66.90
37910;DHT22;23741;49.446;8.754;2022-10-31T19:44:19;19.50;66.80
37910;DHT22;23741;49.446;8.754;2022-10-31T19:46:22;19.50;66.70
37910;DHT22;23741;49.446;8.754;2022-10-31T19:48:44;19.50;66.60
37910;DHT22;23741;49.446;8.754;2022-10-31T19:50:46;19.50;66.70
37910;DHT22;23741;49.446;8.754;2022-10-31T19:52:48;19.50;66.80
37910;DHT22;23741;49.446;8.754;2022-10-31T19:54:50;19.50;66.80
37910;DHT22;23741;49.446;8.754;2022-10-31T19:56:51;19.40;66.90
37910;DHT22;23741;49.446;8.754;2022-10-31T19:58:53;19.50;66.90
37910;DHT22;23741;49.446;8.754;2022-10-31T20:00:57;19.50;66.90
37910;DHT22;23741;49.446;8.754;2022-10-31T20:03:04;19.40;66.90
37910;DHT22;23741;49.446;8.754;2022-10-31T20:05:07;19.40;66.90
37910;DHT22;23741;49.446;8.754;2022-10-31T20:07:09;19.40;66.80
37910;DHT22;23741;49.446;8.754;2022-10-31T20:09:11;19.40;66.80
37910;DHT22;23741;49.446;8.754;2022-10-31T20:11:16;19.40;67.60
37910;DHT22;23741;49.446;8.754;2022-10-31T20:13:17;19.40;66.80
37910;DHT22;23741;49.446;8.754;2022-10-31T20:15:19;19.40;66.90
37910;DHT22;23741;49.446;8.754;2022-10-31T20:17:21;19.40;66.90
37910;DHT22;23741;49.446;8.754;2022-10-31T20:19:23;19.40;66.90
37910;DHT22;23741;49.446;8.754;2022-10-31T20:21:26;19.40;66.80
37910;DHT22;23741;49.446;8.754;2022-10-31T20:23:28;19.40;66.80
37910;DHT22;23741;49.446;8.754;2022-10-31T20:25:30;19.30;66.70
37910;DHT22;23741;49.446;8.754;2022-10-31T20:27:33;19.30;66.80
37910;DHT22;23741;49.446;8.754;2022-10-31T20:29:35;19.30;67.00
37910;DHT22;23741;49.446;8.754;2022-10-31T20:31:37;19.30;67.10
37910;DHT22;23741;49.446;8.754;2022-10-31T20:33:39;19.30;67.00
37910;DHT22;23741;49.446;8.754;2022-10-31T20:35:41;19.30;67.00
37910;DHT22;23741;49.446;8.754;2022-10-31T20:37:43;19.30;67.20
37910;DHT22;23741;49.446;8.754;2022-10-31T20:39:45;19.30;67.10
37910;DHT22;23741;49.446;8.754;2022-10-31T20:41:47;19.30;67.00
37910;DHT22;23741;49.446;8.754;2022-10-31T20:43:49;19.20;67.00
37910;DHT22;23741;49.446;8.754;2022-10-31T20:45:50;19.20;66.80
37910;DHT22;23741;49.446;8.754;2022-10-31T20:56:44;19.20;67.10
37910;DHT22;23741;49.446;8.754;2022-10-31T20:59:22;19.10;67.00
37910;DHT22;23741;49.446;8.754;2022-10-31T21:01:40;19.10;67.00
37910;DHT22;23741;49.446;8.754;2022-10-31T21:07:57;19.10;67.00
37910;DHT22;23741;49.446;8.754;2022-10-31T21:10:45;19.10;67.30
37910;DHT22;23741;49.446;8.754;2022-10-31T21:19:12;19.00;67.50
37910;DHT22;23741;49.446;8.754;2022-10-31T21:22:14;18.90;67.50
37910;DHT22;23741;49.446;8.754;2022-10-31T21:25:05;18.90;67.20
37910;DHT22;23741;49.446;8.754;2022-10-31T21:27:23;19.00;67.10
37910;DHT22;23741;49.446;8.754;2022-10-31T21:33:23;18.90;67.40
37910;DHT22;23741;49.446;8.754;2022-10-31T21:35:49;18.90;67.60
37910;DHT22;23741;49.446;8.754;2022-10-31T21:41:11;18.80;67.40
37910;DHT22;23741;49.446;8.754;2022-10-31T21:43:19;18.80;67.40
37910;DHT22;23741;49.446;8.754;2022-10-31T21:45:54;18.80;67.80